Filskov, Denmark
Current Conditions -  °F | °C
As of 5:20 PM on Friday 19 Dec 2014 (Local Time) from EKBI Reporting Station
Scattered Clouds Scattered Clouds  
Wind Chill: 34°   Ceiling: Unl
Heat Index: 41°   Visibility: 6mi
Dew Point: 34°   Wind: 13mph
Humidity: 76%   Direction: 250°WSW
Pressure: 29.5"   Gusts: NA
Location:  55.81°N, 9.02°E
Report Text: EKBI 191620Z 25011KT 9999 SCT028CB 05/01 Q0999
Loading
Personal Weather Stations






























Interactive Weather Map New forecast layout! Learn more

10-Day Weather Forecast

Advertisements
Track Severe Weather on mobile